sensor_id;sensor_type;location;lat;lon;timestamp;temperature;humidity
29855;DHT22;16733;48.738;9.106;2022-08-21T00:04:57;18.10;58.10
29855;DHT22;16733;48.738;9.106;2022-08-21T00:07:23;18.10;58.00
29855;DHT22;16733;48.738;9.106;2022-08-21T00:09:49;18.00;58.20
29855;DHT22;16733;48.738;9.106;2022-08-21T00:12:14;18.00;58.40
29855;DHT22;16733;48.738;9.106;2022-08-21T00:14:40;18.00;58.50
29855;DHT22;16733;48.738;9.106;2022-08-21T00:17:06;18.00;58.60
29855;DHT22;16733;48.738;9.106;2022-08-21T00:19:32;18.00;58.70
29855;DHT22;16733;48.738;9.106;2022-08-21T00:21:58;17.90;58.80
29855;DHT22;16733;48.738;9.106;2022-08-21T00:24:24;17.90;58.90
29855;DHT22;16733;48.738;9.106;2022-08-21T00:26:50;17.80;58.90
29855;DHT22;16733;48.738;9.106;2022-08-21T00:29:16;17.80;59.00
29855;DHT22;16733;48.738;9.106;2022-08-21T00:31:43;17.80;59.00
29855;DHT22;16733;48.738;9.106;2022-08-21T00:34:10;17.80;59.10
29855;DHT22;16733;48.738;9.106;2022-08-21T00:36:36;17.80;59.20
29855;DHT22;16733;48.738;9.106;2022-08-21T00:39:03;17.80;59.30
29855;DHT22;16733;48.738;9.106;2022-08-21T00:41:30;17.70;59.30
29855;DHT22;16733;48.738;9.106;2022-08-21T00:43:56;17.70;59.30
29855;DHT22;16733;48.738;9.106;2022-08-21T00:46:21;17.70;59.40
29855;DHT22;16733;48.738;9.106;2022-08-21T00:48:47;17.70;59.50
29855;DHT22;16733;48.738;9.106;2022-08-21T00:51:17;17.60;59.50
29855;DHT22;16733;48.738;9.106;2022-08-21T00:53:49;17.60;59.50
29855;DHT22;16733;48.738;9.106;2022-08-21T00:56:17;17.60;59.50
29855;DHT22;16733;48.738;9.106;2022-08-21T00:58:45;17.60;59.70
29855;DHT22;16733;48.738;9.106;2022-08-21T01:01:11;17.60;59.70
29855;DHT22;16733;48.738;9.106;2022-08-21T01:06:59;17.60;60.00
29855;DHT22;16733;48.738;9.106;2022-08-21T01:09:25;17.50;59.80
29855;DHT22;16733;48.738;9.106;2022-08-21T01:14:57;17.60;60.00
29855;DHT22;16733;48.738;9.106;2022-08-21T01:17:24;17.50;60.00
29855;DHT22;16733;48.738;9.106;2022-08-21T01:19:49;17.50;60.10
29855;DHT22;16733;48.738;9.106;2022-08-21T01:22:15;17.50;60.20
29855;DHT22;16733;48.738;9.106;2022-08-21T01:24:41;17.50;60.30
29855;DHT22;16733;48.738;9.106;2022-08-21T01:27:06;17.50;60.50
29855;DHT22;16733;48.738;9.106;2022-08-21T01:29:42;17.40;60.50
29855;DHT22;16733;48.738;9.106;2022-08-21T01:32:11;17.40;60.60
29855;DHT22;16733;48.738;9.106;2022-08-21T01:34:41;17.40;60.70
29855;DHT22;16733;48.738;9.106;2022-08-21T01:40:29;17.30;61.10
29855;DHT22;16733;48.738;9.106;2022-08-21T01:42:54;17.30;60.90
29855;DHT22;16733;48.738;9.106;2022-08-21T01:48:42;17.20;61.50
29855;DHT22;16733;48.738;9.106;2022-08-21T01:51:08;17.20;61.30
29855;DHT22;16733;48.738;9.106;2022-08-21T01:56:56;17.10;61.80
29855;DHT22;16733;48.738;9.106;2022-08-21T01:59:24;17.10;61.60
29855;DHT22;16733;48.738;9.106;2022-08-21T02:01:50;17.10;61.80
29855;DHT22;16733;48.738;9.106;2022-08-21T02:04:16;17.00;61.90
29855;DHT22;16733;48.738;9.106;2022-08-21T02:06:42;17.00;61.90
29855;DHT22;16733;48.738;9.106;2022-08-21T02:09:09;17.00;62.00
29855;DHT22;16733;48.738;9.106;2022-08-21T02:14:57;17.00;62.30
29855;DHT22;16733;48.738;9.106;2022-08-21T02:17:23;16.90;62.00
29855;DHT22;16733;48.738;9.106;2022-08-21T02:19:49;16.90;62.20
29855;DHT22;16733;48.738;9.106;2022-08-21T02:22:15;16.90;62.40
29855;DHT22;16733;48.738;9.106;2022-08-21T02:24:40;16.90;62.50
29855;DHT22;16733;48.738;9.106;2022-08-21T02:30:44;16.80;63.00
29855;DHT22;16733;48.738;9.106;2022-08-21T02:39:54;16.60;63.10
29855;DHT22;16733;48.738;9.106;2022-08-21T02:42:20;16.60;63.10
29855;DHT22;16733;48.738;9.106;2022-08-21T02:44:45;16.50;63.30
29855;DHT22;16733;48.738;9.106;2022-08-21T02:47:11;16.50;63.50
29855;DHT22;16733;48.738;9.106;2022-08-21T02:52:59;16.40;63.90
29855;DHT22;16733;48.738;9.106;2022-08-21T02:58:50;16.30;64.10
29855;DHT22;16733;48.738;9.106;2022-08-21T03:01:17;16.30;64.00
29855;DHT22;16733;48.738;9.106;2022-08-21T03:03:45;16.30;64.10
29855;DHT22;16733;48.738;9.106;2022-08-21T03:06:14;16.30;64.40
29855;DHT22;16733;48.738;9.106;2022-08-21T03:08:40;16.20;64.40
29855;DHT22;16733;48.738;9.106;2022-08-21T03:11:07;16.20;64.50
29855;DHT22;16733;48.738;9.106;2022-08-21T03:13:32;16.20;64.60
29855;DHT22;16733;48.738;9.106;2022-08-21T03:15:59;16.20;64.70
29855;DHT22;16733;48.738;9.106;2022-08-21T03:18:25;16.20;64.80
29855;DHT22;16733;48.738;9.106;2022-08-21T03:20:50;16.20;64.90
29855;DHT22;16733;48.738;9.106;2022-08-21T03:23:17;16.10;65.00
29855;DHT22;16733;48.738;9.106;2022-08-21T03:25:43;16.10;65.10
29855;DHT22;16733;48.738;9.106;2022-08-21T03:28:16;16.00;65.10
29855;DHT22;16733;48.738;9.106;2022-08-21T03:30:45;15.90;65.30
29855;DHT22;16733;48.738;9.106;2022-08-21T03:36:33;15.90;65.90
29855;DHT22;16733;48.738;9.106;2022-08-21T03:42:21;15.80;66.00
29855;DHT22;16733;48.738;9.106;2022-08-21T03:44:47;15.70;65.80
29855;DHT22;16733;48.738;9.106;2022-08-21T03:47:12;15.70;66.20
29855;DHT22;16733;48.738;9.106;2022-08-21T03:53:00;15.60;66.60
29855;DHT22;16733;48.738;9.106;2022-08-21T03:55:26;15.60;66.50
29855;DHT22;16733;48.738;9.106;2022-08-21T04:01:14;15.50;67.00
29855;DHT22;16733;48.738;9.106;2022-08-21T04:03:40;15.50;66.80
29855;DHT22;16733;48.738;9.106;2022-08-21T04:09:41;15.50;67.20
29855;DHT22;16733;48.738;9.106;2022-08-21T04:12:07;15.50;66.80
29855;DHT22;16733;48.738;9.106;2022-08-21T04:24:39;15.50;67.20
29855;DHT22;16733;48.738;9.106;2022-08-21T04:27:05;15.40;66.90
29855;DHT22;16733;48.738;9.106;2022-08-21T04:32:52;15.40;67.70
29855;DHT22;16733;48.738;9.106;2022-08-21T04:38:40;15.30;68.00
29855;DHT22;16733;48.738;9.106;2022-08-21T04:41:06;15.30;67.80
29855;DHT22;16733;48.738;9.106;2022-08-21T04:46:53;15.30;68.30
29855;DHT22;16733;48.738;9.106;2022-08-21T04:49:19;15.30;68.10
29855;DHT22;16733;48.738;9.106;2022-08-21T04:51:45;15.30;68.20
29855;DHT22;16733;48.738;9.106;2022-08-21T04:54:13;15.30;68.40
29855;DHT22;16733;48.738;9.106;2022-08-21T04:56:48;15.30;68.50
29855;DHT22;16733;48.738;9.106;2022-08-21T04:59:22;15.20;68.60
29855;DHT22;16733;48.738;9.106;2022-08-21T05:01:50;15.20;68.70
29855;DHT22;16733;48.738;9.106;2022-08-21T05:04:18;15.20;68.90
29855;DHT22;16733;48.738;9.106;2022-08-21T05:06:47;15.20;69.00
29855;DHT22;16733;48.738;9.106;2022-08-21T05:12:35;15.30;69.40
29855;DHT22;16733;48.738;9.106;2022-08-21T05:15:01;15.30;69.10
29855;DHT22;16733;48.738;9.106;2022-08-21T05:20:49;15.30;69.50
29855;DHT22;16733;48.738;9.106;2022-08-21T05:23:16;15.40;69.20
29855;DHT22;16733;48.738;9.106;2022-08-21T05:25:42;15.40;69.30
29855;DHT22;16733;48.738;9.106;2022-08-21T05:31:30;15.40;69.50
29855;DHT22;16733;48.738;9.106;2022-08-21T05:33:56;15.50;69.30
29855;DHT22;16733;48.738;9.106;2022-08-21T05:36:22;15.50;69.30
29855;DHT22;16733;48.738;9.106;2022-08-21T05:42:10;15.70;69.60
29855;DHT22;16733;48.738;9.106;2022-08-21T05:44:36;15.70;69.30
29855;DHT22;16733;48.738;9.106;2022-08-21T05:53:45;16.00;69.40
29855;DHT22;16733;48.738;9.106;2022-08-21T06:02:54;16.30;69.30
29855;DHT22;16733;48.738;9.106;2022-08-21T06:05:20;16.40;69.10
29855;DHT22;16733;48.738;9.106;2022-08-21T06:07:46;16.50;69.10
29855;DHT22;16733;48.738;9.106;2022-08-21T06:10:12;16.60;69.20
29855;DHT22;16733;48.738;9.106;2022-08-21T06:12:38;16.70;69.10
29855;DHT22;16733;48.738;9.106;2022-08-21T06:15:04;16.80;69.10
29855;DHT22;16733;48.738;9.106;2022-08-21T06:17:30;16.90;68.90
29855;DHT22;16733;48.738;9.106;2022-08-21T06:19:56;17.10;68.70
29855;DHT22;16733;48.738;9.106;2022-08-21T06:22:22;17.10;68.50
29855;DHT22;16733;48.738;9.106;2022-08-21T06:24:47;17.20;68.50
29855;DHT22;16733;48.738;9.106;2022-08-21T06:27:13;17.40;68.40
29855;DHT22;16733;48.738;9.106;2022-08-21T06:29:40;17.50;68.30
29855;DHT22;16733;48.738;9.106;2022-08-21T06:32:06;17.60;68.10
29855;DHT22;16733;48.738;9.106;2022-08-21T06:37:57;17.80;67.80
29855;DHT22;16733;48.738;9.106;2022-08-21T06:40:23;17.90;67.50
29855;DHT22;16733;48.738;9.106;2022-08-21T06:42:49;18.00;67.20
29855;DHT22;16733;48.738;9.106;2022-08-21T06:48:37;18.20;66.70
29855;DHT22;16733;48.738;9.106;2022-08-21T06:54:24;18.40;66.30
29855;DHT22;16733;48.738;9.106;2022-08-21T06:56:50;18.50;66.30
29855;DHT22;16733;48.738;9.106;2022-08-21T06:59:15;18.50;66.10
29855;DHT22;16733;48.738;9.106;2022-08-21T07:01:41;18.60;66.00
29855;DHT22;16733;48.738;9.106;2022-08-21T07:07:29;18.70;65.40
29855;DHT22;16733;48.738;9.106;2022-08-21T07:13:17;18.90;65.10
29855;DHT22;16733;48.738;9.106;2022-08-21T07:15:42;19.00;65.10
29855;DHT22;16733;48.738;9.106;2022-08-21T07:18:08;19.10;64.90
29855;DHT22;16733;48.738;9.106;2022-08-21T07:20:34;19.20;64.80
29855;DHT22;16733;48.738;9.106;2022-08-21T07:23:03;19.20;64.60
29855;DHT22;16733;48.738;9.106;2022-08-21T07:25:29;19.30;64.40
29855;DHT22;16733;48.738;9.106;2022-08-21T07:31:20;19.50;63.60
29855;DHT22;16733;48.738;9.106;2022-08-21T07:33:47;19.60;63.70
29855;DHT22;16733;48.738;9.106;2022-08-21T07:39:35;19.80;63.10
29855;DHT22;16733;48.738;9.106;2022-08-21T07:48:50;20.20;62.60
29855;DHT22;16733;48.738;9.106;2022-08-21T07:51:17;20.20;62.50
29855;DHT22;16733;48.738;9.106;2022-08-21T07:53:48;20.40;62.30
29855;DHT22;16733;48.738;9.106;2022-08-21T07:56:15;20.50;61.90
29855;DHT22;16733;48.738;9.106;2022-08-21T07:58:41;20.60;62.60
29855;DHT22;16733;48.738;9.106;2022-08-21T08:01:06;20.70;61.60
29855;DHT22;16733;48.738;9.106;2022-08-21T08:03:33;20.80;61.10
29855;DHT22;16733;48.738;9.106;2022-08-21T08:05:58;20.90;60.80
29855;DHT22;16733;48.738;9.106;2022-08-21T08:08:24;21.00;60.50
29855;DHT22;16733;48.738;9.106;2022-08-21T08:10:50;21.10;60.20
29855;DHT22;16733;48.738;9.106;2022-08-21T08:13:17;21.20;60.00
29855;DHT22;16733;48.738;9.106;2022-08-21T08:15:43;21.20;59.70
29855;DHT22;16733;48.738;9.106;2022-08-21T08:18:08;21.30;59.50
29855;DHT22;16733;48.738;9.106;2022-08-21T08:20:34;21.40;59.40
29855;DHT22;16733;48.738;9.106;2022-08-21T08:22:59;21.50;59.20
29855;DHT22;16733;48.738;9.106;2022-08-21T08:25:27;21.50;59.00
29855;DHT22;16733;48.738;9.106;2022-08-21T08:27:52;21.60;58.80
29855;DHT22;16733;48.738;9.106;2022-08-21T08:30:19;21.70;58.60
29855;DHT22;16733;48.738;9.106;2022-08-21T08:32:46;21.80;58.50
29855;DHT22;16733;48.738;9.106;2022-08-21T08:35:12;21.90;58.40
29855;DHT22;16733;48.738;9.106;2022-08-21T08:37:38;21.90;58.10
29855;DHT22;16733;48.738;9.106;2022-08-21T08:40:32;22.00;58.00
29855;DHT22;16733;48.738;9.106;2022-08-21T08:43:00;22.00;57.60
29855;DHT22;16733;48.738;9.106;2022-08-21T08:45:27;22.00;57.60
29855;DHT22;16733;48.738;9.106;2022-08-21T08:48:01;22.00;57.50
29855;DHT22;16733;48.738;9.106;2022-08-21T08:53:07;22.10;57.10
29855;DHT22;16733;48.738;9.106;2022-08-21T08:55:37;22.20;57.00
29855;DHT22;16733;48.738;9.106;2022-08-21T08:58:03;22.30;56.90
29855;DHT22;16733;48.738;9.106;2022-08-21T09:03:51;22.40;56.00
29855;DHT22;16733;48.738;9.106;2022-08-21T09:06:37;22.40;56.10
29855;DHT22;16733;48.738;9.106;2022-08-21T09:12:09;22.60;55.60
29855;DHT22;16733;48.738;9.106;2022-08-21T09:20:52;22.80;55.20
29855;DHT22;16733;48.738;9.106;2022-08-21T09:23:40;22.90;54.90
29855;DHT22;16733;48.738;9.106;2022-08-21T09:26:14;22.90;54.90
29855;DHT22;16733;48.738;9.106;2022-08-21T09:32:04;23.00;53.70
29855;DHT22;16733;48.738;9.106;2022-08-21T09:34:34;23.00;54.00
29855;DHT22;16733;48.738;9.106;2022-08-21T09:37:01;23.10;53.90
29855;DHT22;16733;48.738;9.106;2022-08-21T09:39:30;23.20;53.70
29855;DHT22;16733;48.738;9.106;2022-08-21T09:45:18;23.20;52.90
29855;DHT22;16733;48.738;9.106;2022-08-21T09:47:44;23.20;53.30
29855;DHT22;16733;48.738;9.106;2022-08-21T09:50:14;23.30;53.20
29855;DHT22;16733;48.738;9.106;2022-08-21T09:52:56;23.40;52.90
29855;DHT22;16733;48.738;9.106;2022-08-21T09:55:53;23.60;52.60
29855;DHT22;16733;48.738;9.106;2022-08-21T10:08:17;24.10;51.40
29855;DHT22;16733;48.738;9.106;2022-08-21T10:10:43;24.20;51.60
29855;DHT22;16733;48.738;9.106;2022-08-21T10:19:09;24.50;50.90
29855;DHT22;16733;48.738;9.106;2022-08-21T10:21:53;24.60;50.60
29855;DHT22;16733;48.738;9.106;2022-08-21T10:24:33;24.70;50.60
29855;DHT22;16733;48.738;9.106;2022-08-21T10:27:15;24.70;50.30
29855;DHT22;16733;48.738;9.106;2022-08-21T10:30:07;24.70;50.20
29855;DHT22;16733;48.738;9.106;2022-08-21T10:35:26;24.40;50.40
29855;DHT22;16733;48.738;9.106;2022-08-21T10:47:06;24.20;50.20
29855;DHT22;16733;48.738;9.106;2022-08-21T10:50:06;24.10;50.20
29855;DHT22;16733;48.738;9.106;2022-08-21T10:55:08;24.30;50.10
29855;DHT22;16733;48.738;9.106;2022-08-21T10:57:57;24.50;49.90
29855;DHT22;16733;48.738;9.106;2022-08-21T11:00:53;24.60;49.60
29855;DHT22;16733;48.738;9.106;2022-08-21T11:03:39;24.60;49.60
29855;DHT22;16733;48.738;9.106;2022-08-21T11:06:24;24.70;49.40
29855;DHT22;16733;48.738;9.106;2022-08-21T11:08:55;24.70;49.20
29855;DHT22;16733;48.738;9.106;2022-08-21T11:11:27;24.80;49.20
29855;DHT22;16733;48.738;9.106;2022-08-21T11:17:24;24.70;49.10
29855;DHT22;16733;48.738;9.106;2022-08-21T11:22:40;24.90;48.70
29855;DHT22;16733;48.738;9.106;2022-08-21T11:28:05;25.30;48.30
29855;DHT22;16733;48.738;9.106;2022-08-21T11:42:08;26.10;46.70
29855;DHT22;16733;48.738;9.106;2022-08-21T11:50:31;25.70;46.70
29855;DHT22;16733;48.738;9.106;2022-08-21T11:56:12;25.70;46.60
29855;DHT22;16733;48.738;9.106;2022-08-21T11:59:01;25.70;46.60
29855;DHT22;16733;48.738;9.106;2022-08-21T12:01:34;25.70;46.10
29855;DHT22;16733;48.738;9.106;2022-08-21T12:04:06;25.80;46.00
29855;DHT22;16733;48.738;9.106;2022-08-21T12:06:38;25.70;45.90
29855;DHT22;16733;48.738;9.106;2022-08-21T12:09:10;25.60;45.70
29855;DHT22;16733;48.738;9.106;2022-08-21T12:11:59;25.50;45.80
29855;DHT22;16733;48.738;9.106;2022-08-21T12:15:25;25.60;46.20
29855;DHT22;16733;48.738;9.106;2022-08-21T12:17:54;25.70;45.30
29855;DHT22;16733;48.738;9.106;2022-08-21T12:29:23;26.00;44.90
29855;DHT22;16733;48.738;9.106;2022-08-21T12:31:51;25.90;45.00
29855;DHT22;16733;48.738;9.106;2022-08-21T12:34:18;25.90;45.10
29855;DHT22;16733;48.738;9.106;2022-08-21T12:36:56;25.80;45.10
29855;DHT22;16733;48.738;9.106;2022-08-21T12:42:49;25.70;44.70
29855;DHT22;16733;48.738;9.106;2022-08-21T12:48:58;25.50;45.10
29855;DHT22;16733;48.738;9.106;2022-08-21T12:51:42;25.50;45.10
29855;DHT22;16733;48.738;9.106;2022-08-21T12:54:32;25.50;45.10
29855;DHT22;16733;48.738;9.106;2022-08-21T12:57:04;25.60;45.20
29855;DHT22;16733;48.738;9.106;2022-08-21T12:59:31;25.90;45.00
29855;DHT22;16733;48.738;9.106;2022-08-21T13:05:30;26.40;44.40
29855;DHT22;16733;48.738;9.106;2022-08-21T13:07:57;26.60;44.40
29855;DHT22;16733;48.738;9.106;2022-08-21T13:13:49;26.90;43.80
29855;DHT22;16733;48.738;9.106;2022-08-21T13:16:22;27.10;43.90
29855;DHT22;16733;48.738;9.106;2022-08-21T13:18:56;27.20;43.60
29855;DHT22;16733;48.738;9.106;2022-08-21T13:21:28;27.30;43.30
29855;DHT22;16733;48.738;9.106;2022-08-21T13:23:54;27.40;43.10
29855;DHT22;16733;48.738;9.106;2022-08-21T13:26:21;27.60;43.20
29855;DHT22;16733;48.738;9.106;2022-08-21T13:28:48;27.80;43.60
29855;DHT22;16733;48.738;9.106;2022-08-21T13:31:26;28.00;42.70
29855;DHT22;16733;48.738;9.106;2022-08-21T13:33:53;28.00;42.00
29855;DHT22;16733;48.738;9.106;2022-08-21T13:36:30;27.80;42.10
29855;DHT22;16733;48.738;9.106;2022-08-21T13:38:57;27.80;41.90
29855;DHT22;16733;48.738;9.106;2022-08-21T13:41:32;27.90;41.90
29855;DHT22;16733;48.738;9.106;2022-08-21T13:50:20;27.80;41.10
29855;DHT22;16733;48.738;9.106;2022-08-21T13:53:01;27.70;41.30
29855;DHT22;16733;48.738;9.106;2022-08-21T13:55:36;27.50;41.00
29855;DHT22;16733;48.738;9.106;2022-08-21T14:01:31;27.20;40.50
29855;DHT22;16733;48.738;9.106;2022-08-21T14:04:12;26.80;40.50
29855;DHT22;16733;48.738;9.106;2022-08-21T14:06:43;26.70;40.60
29855;DHT22;16733;48.738;9.106;2022-08-21T14:09:12;26.60;40.60
29855;DHT22;16733;48.738;9.106;2022-08-21T14:11:38;26.50;40.70
29855;DHT22;16733;48.738;9.106;2022-08-21T14:14:20;26.70;40.70
29855;DHT22;16733;48.738;9.106;2022-08-21T14:17:27;26.80;40.60
29855;DHT22;16733;48.738;9.106;2022-08-21T14:19:45;26.80;40.90
29855;DHT22;16733;48.738;9.106;2022-08-21T14:27:50;27.20;40.50
29855;DHT22;16733;48.738;9.106;2022-08-21T14:32:45;27.10;40.10
29855;DHT22;16733;48.738;9.106;2022-08-21T14:35:11;26.90;40.10
29855;DHT22;16733;48.738;9.106;2022-08-21T14:37:37;26.90;40.10
29855;DHT22;16733;48.738;9.106;2022-08-21T14:40:06;26.90;40.00
29855;DHT22;16733;48.738;9.106;2022-08-21T14:42:32;26.80;39.80
29855;DHT22;16733;48.738;9.106;2022-08-21T14:45:07;26.70;39.80
29855;DHT22;16733;48.738;9.106;2022-08-21T14:50:57;26.70;39.50
29855;DHT22;16733;48.738;9.106;2022-08-21T14:53:22;26.90;39.80
29855;DHT22;16733;48.738;9.106;2022-08-21T14:59:10;28.00;38.90
29855;DHT22;16733;48.738;9.106;2022-08-21T15:01:37;28.50;38.50
29855;DHT22;16733;48.738;9.106;2022-08-21T15:07:25;30.30;36.80
29855;DHT22;16733;48.738;9.106;2022-08-21T15:09:51;31.70;36.20
29855;DHT22;16733;48.738;9.106;2022-08-21T15:12:16;32.60;35.40
29855;DHT22;16733;48.738;9.106;2022-08-21T15:14:42;33.20;35.30
29855;DHT22;16733;48.738;9.106;2022-08-21T15:17:09;33.70;34.80
29855;DHT22;16733;48.738;9.106;2022-08-21T15:19:35;34.20;34.30
29855;DHT22;16733;48.738;9.106;2022-08-21T15:22:01;34.50;34.10
29855;DHT22;16733;48.738;9.106;2022-08-21T15:24:27;34.90;33.80
29855;DHT22;16733;48.738;9.106;2022-08-21T15:30:18;36.00;32.50
29855;DHT22;16733;48.738;9.106;2022-08-21T15:36:06;36.80;31.20
29855;DHT22;16733;48.738;9.106;2022-08-21T15:41:34;36.80;31.20
29855;DHT22;16733;48.738;9.106;2022-08-21T15:44:00;37.00;30.90
29855;DHT22;16733;48.738;9.106;2022-08-21T15:46:26;37.20;30.20
29855;DHT22;16733;48.738;9.106;2022-08-21T15:48:51;37.50;29.80
29855;DHT22;16733;48.738;9.106;2022-08-21T15:51:17;37.70;29.50
29855;DHT22;16733;48.738;9.106;2022-08-21T15:53:43;37.40;29.20
29855;DHT22;16733;48.738;9.106;2022-08-21T15:56:33;36.50;29.20
29855;DHT22;16733;48.738;9.106;2022-08-21T15:59:13;35.30;29.30
29855;DHT22;16733;48.738;9.106;2022-08-21T16:01:40;34.10;30.00
29855;DHT22;16733;48.738;9.106;2022-08-21T16:04:06;33.20;30.90
29855;DHT22;16733;48.738;9.106;2022-08-21T16:06:32;32.50;31.20
29855;DHT22;16733;48.738;9.106;2022-08-21T16:08:59;31.90;31.80
29855;DHT22;16733;48.738;9.106;2022-08-21T16:11:24;31.40;31.90
29855;DHT22;16733;48.738;9.106;2022-08-21T16:13:50;30.80;32.20
29855;DHT22;16733;48.738;9.106;2022-08-21T16:16:20;30.30;32.20
29855;DHT22;16733;48.738;9.106;2022-08-21T16:18:47;29.70;32.20
29855;DHT22;16733;48.738;9.106;2022-08-21T16:21:14;29.20;32.30
29855;DHT22;16733;48.738;9.106;2022-08-21T16:23:40;28.60;32.40
29855;DHT22;16733;48.738;9.106;2022-08-21T16:26:07;28.20;32.50
29855;DHT22;16733;48.738;9.106;2022-08-21T16:31:55;27.60;32.80
29855;DHT22;16733;48.738;9.106;2022-08-21T16:34:21;27.30;32.80
29855;DHT22;16733;48.738;9.106;2022-08-21T16:36:47;27.10;33.00
29855;DHT22;16733;48.738;9.106;2022-08-21T16:42:36;26.60;33.40
29855;DHT22;16733;48.738;9.106;2022-08-21T16:45:06;26.40;33.60
29855;DHT22;16733;48.738;9.106;2022-08-21T16:47:32;26.30;33.80
29855;DHT22;16733;48.738;9.106;2022-08-21T16:53:19;26.00;34.20
29855;DHT22;16733;48.738;9.106;2022-08-21T16:59:10;25.90;34.50
29855;DHT22;16733;48.738;9.106;2022-08-21T17:01:36;25.80;34.50
29855;DHT22;16733;48.738;9.106;2022-08-21T17:07:24;25.60;34.80
29855;DHT22;16733;48.738;9.106;2022-08-21T17:09:50;25.60;34.80
29855;DHT22;16733;48.738;9.106;2022-08-21T17:12:16;25.50;35.00
29855;DHT22;16733;48.738;9.106;2022-08-21T17:18:05;25.40;35.30
29855;DHT22;16733;48.738;9.106;2022-08-21T17:20:33;25.40;35.40
29855;DHT22;16733;48.738;9.106;2022-08-21T17:22:58;25.40;35.50
29855;DHT22;16733;48.738;9.106;2022-08-21T17:25:24;25.30;35.60
29855;DHT22;16733;48.738;9.106;2022-08-21T17:27:51;25.30;35.70
29855;DHT22;16733;48.738;9.106;2022-08-21T17:30:17;25.20;35.80
29855;DHT22;16733;48.738;9.106;2022-08-21T17:36:05;25.10;36.10
29855;DHT22;16733;48.738;9.106;2022-08-21T17:38:31;25.00;36.10
29855;DHT22;16733;48.738;9.106;2022-08-21T17:40:57;24.90;36.20
29855;DHT22;16733;48.738;9.106;2022-08-21T17:43:23;24.90;36.30
29855;DHT22;16733;48.738;9.106;2022-08-21T17:45:49;24.90;36.40
29855;DHT22;16733;48.738;9.106;2022-08-21T17:48:15;24.80;36.40
29855;DHT22;16733;48.738;9.106;2022-08-21T17:50:41;24.80;36.50
29855;DHT22;16733;48.738;9.106;2022-08-21T17:53:06;24.80;36.60
29855;DHT22;16733;48.738;9.106;2022-08-21T17:59:33;24.60;36.80
29855;DHT22;16733;48.738;9.106;2022-08-21T18:01:59;24.50;36.80
29855;DHT22;16733;48.738;9.106;2022-08-21T18:04:28;24.50;37.00
29855;DHT22;16733;48.738;9.106;2022-08-21T18:06:54;24.40;37.10
29855;DHT22;16733;48.738;9.106;2022-08-21T18:09:20;24.40;37.20
29855;DHT22;16733;48.738;9.106;2022-08-21T18:11:48;24.40;37.30
29855;DHT22;16733;48.738;9.106;2022-08-21T18:14:14;24.30;37.50
29855;DHT22;16733;48.738;9.106;2022-08-21T18:20:04;24.20;37.90
29855;DHT22;16733;48.738;9.106;2022-08-21T18:22:31;24.20;37.90
29855;DHT22;16733;48.738;9.106;2022-08-21T18:28:19;24.10;38.30
29855;DHT22;16733;48.738;9.106;2022-08-21T18:30:45;24.00;38.40
29855;DHT22;16733;48.738;9.106;2022-08-21T18:33:12;23.90;39.30
29855;DHT22;16733;48.738;9.106;2022-08-21T18:35:39;23.80;39.00
29855;DHT22;16733;48.738;9.106;2022-08-21T18:38:04;23.80;39.20
29855;DHT22;16733;48.738;9.106;2022-08-21T18:40:32;23.80;39.50
29855;DHT22;16733;48.738;9.106;2022-08-21T18:42:59;23.70;39.70
29855;DHT22;16733;48.738;9.106;2022-08-21T18:45:25;23.60;39.90
29855;DHT22;16733;48.738;9.106;2022-08-21T18:47:54;23.60;40.10
29855;DHT22;16733;48.738;9.106;2022-08-21T18:50:24;23.50;40.30
29855;DHT22;16733;48.738;9.106;2022-08-21T18:52:51;23.40;40.50
29855;DHT22;16733;48.738;9.106;2022-08-21T18:55:18;23.30;40.60
29855;DHT22;16733;48.738;9.106;2022-08-21T19:01:06;23.20;41.30
29855;DHT22;16733;48.738;9.106;2022-08-21T19:03:31;23.10;41.00
29855;DHT22;16733;48.738;9.106;2022-08-21T19:05:57;23.10;41.20
29855;DHT22;16733;48.738;9.106;2022-08-21T19:08:23;23.00;41.30
29855;DHT22;16733;48.738;9.106;2022-08-21T19:10:55;22.90;41.50
29855;DHT22;16733;48.738;9.106;2022-08-21T19:13:22;22.90;41.80
29855;DHT22;16733;48.738;9.106;2022-08-21T19:15:49;22.80;42.00
29855;DHT22;16733;48.738;9.106;2022-08-21T19:18:19;22.80;42.20
29855;DHT22;16733;48.738;9.106;2022-08-21T19:24:07;22.60;42.70
29855;DHT22;16733;48.738;9.106;2022-08-21T19:26:33;22.50;42.70
29855;DHT22;16733;48.738;9.106;2022-08-21T19:35:43;22.20;43.50
29855;DHT22;16733;48.738;9.106;2022-08-21T19:38:09;22.10;43.40
29855;DHT22;16733;48.738;9.106;2022-08-21T19:40:34;22.10;43.70
29855;DHT22;16733;48.738;9.106;2022-08-21T19:46:31;22.00;44.10
29855;DHT22;16733;48.738;9.106;2022-08-21T19:48:58;21.90;44.10
29855;DHT22;16733;48.738;9.106;2022-08-21T19:51:24;21.90;44.80
29855;DHT22;16733;48.738;9.106;2022-08-21T19:53:51;21.90;44.40
29855;DHT22;16733;48.738;9.106;2022-08-21T19:56:20;21.80;44.50
29855;DHT22;16733;48.738;9.106;2022-08-21T19:58:46;21.70;44.70
29855;DHT22;16733;48.738;9.106;2022-08-21T20:01:13;21.60;44.80
29855;DHT22;16733;48.738;9.106;2022-08-21T20:07:01;21.50;45.40
29855;DHT22;16733;48.738;9.106;2022-08-21T20:09:28;21.40;45.30
29855;DHT22;16733;48.738;9.106;2022-08-21T20:15:19;21.30;46.00
29855;DHT22;16733;48.738;9.106;2022-08-21T20:17:46;21.20;46.00
29855;DHT22;16733;48.738;9.106;2022-08-21T20:20:26;21.10;46.20
29855;DHT22;16733;48.738;9.106;2022-08-21T20:22:51;21.10;46.50
29855;DHT22;16733;48.738;9.106;2022-08-21T20:25:17;21.10;46.40
29855;DHT22;16733;48.738;9.106;2022-08-21T20:27:43;21.00;46.60
29855;DHT22;16733;48.738;9.106;2022-08-21T20:30:10;20.90;46.80
29855;DHT22;16733;48.738;9.106;2022-08-21T20:32:35;20.80;47.00
29855;DHT22;16733;48.738;9.106;2022-08-21T20:38:23;20.60;47.50
29855;DHT22;16733;48.738;9.106;2022-08-21T20:40:50;20.50;47.40
29855;DHT22;16733;48.738;9.106;2022-08-21T20:46:39;20.50;47.80
29855;DHT22;16733;48.738;9.106;2022-08-21T20:49:10;20.50;47.50
29855;DHT22;16733;48.738;9.106;2022-08-21T20:51:48;20.60;47.70
29855;DHT22;16733;48.738;9.106;2022-08-21T20:54:33;20.60;47.90
29855;DHT22;16733;48.738;9.106;2022-08-21T21:04:42;20.40;48.50
29855;DHT22;16733;48.738;9.106;2022-08-21T21:07:11;20.40;48.60
29855;DHT22;16733;48.738;9.106;2022-08-21T21:09:45;20.40;48.60
29855;DHT22;16733;48.738;9.106;2022-08-21T21:12:16;20.30;48.60
29855;DHT22;16733;48.738;9.106;2022-08-21T21:22:25;20.20;48.90
29855;DHT22;16733;48.738;9.106;2022-08-21T21:27:56;20.10;49.00
29855;DHT22;16733;48.738;9.106;2022-08-21T21:30:31;20.10;49.10
29855;DHT22;16733;48.738;9.106;2022-08-21T21:36:42;20.00;49.40
29855;DHT22;16733;48.738;9.106;2022-08-21T21:39:39;20.00;49.30
29855;DHT22;16733;48.738;9.106;2022-08-21T21:58:16;19.70;49.90
29855;DHT22;16733;48.738;9.106;2022-08-21T22:00:47;19.60;50.00